map of ACI home
ACI - Airport
Location
City:  Alderney, Guernsey
Name:The Blaye
ICAO:EGJA
IATA:ACI

Details
Type:Airport (Aerodrome, Airfield)
Use:Public/Civil, International (customs port of entry)
Latitude:4942'24"N (49.706758)
Longitude:212'52"W (-2.214480)
Elevation:290 ft (88 m)
Variation:0.59W (WMM2015v2 magnetic declination)
0.18 annual change
Runways:3
Longest:2877 × 59 ft (877 × 18 m), paved

Time
Time Zone:UTC+0 (DST+1)
Local Time:

Weather
METAR:EGJA 041350Z 19015KT 9999 BKN010 08/07 Q1018

Related Locations
Nearby:
Farthest:NZTI: 12000 mi / 19312 km
Taieri, OTA, NZ

Find:

   beyond  
but within

Other Information
Maps:
NOTAMs:
Links:
Sources:

  
  • flag of Guernsey
  • flag of Alderney
  

Airport Diagram

Airport diagram for ACI

Airport diagram PDF

Sectional Chart

Flight Planning
at skyvector.com

Satellite Image

Google Maps Satellite view

 

Copyright © 2004-2019 Karl L. Swartz. All rights reserved.
The Great Circle Mapper name and logo are trademarks of the Great Circle Mapper.
All other trademarks mentioned herein belong to their respective owners.
Please see credits for attibutions and further copyright information.

  Follow gcmap on Facebook Follow gcmap on Twitter GCmap on LinkedIn

hCard Microformat

Geo Microformat